createdAt,value
2022-11-08T00:01:42.104Z,4.76
2022-11-08T00:12:02.791Z,4.49
2022-11-08T00:22:05.226Z,4.24
2022-11-08T00:32:11.160Z,4.09
2022-11-08T00:42:13.723Z,3.82
2022-11-08T00:52:16.005Z,3.67
2022-11-08T01:02:18.458Z,3.86
2022-11-08T01:12:20.799Z,4.18
2022-11-08T01:22:23.138Z,4.52
2022-11-08T01:32:25.458Z,4.95
2022-11-08T01:42:31.390Z,5.07
2022-11-08T01:52:47.627Z,4.69
2022-11-08T02:02:55.124Z,4.42
2022-11-08T02:12:59.673Z,4.19
2022-11-08T02:23:20.537Z,4.05
2022-11-08T02:33:23.516Z,3.95
2022-11-08T02:43:26.600Z,3.69
2022-11-08T02:53:29.024Z,3.45
2022-11-08T03:03:31.267Z,3.31
2022-11-08T03:13:33.534Z,3.23
2022-11-08T03:23:35.869Z,3.17
2022-11-08T03:33:38.189Z,3.17
2022-11-08T03:43:40.445Z,3.13
2022-11-08T03:53:42.789Z,3.08
2022-11-08T04:03:45.357Z,3.13
2022-11-08T04:14:06.694Z,3.12
2022-11-08T04:24:08.986Z,3.47
2022-11-08T04:34:11.426Z,3.72
2022-11-08T04:44:15.706Z,3.47
2022-11-08T04:54:18.059Z,3.24
2022-11-08T05:04:20.344Z,3.15
2022-11-08T05:14:22.648Z,2.93
2022-11-08T05:24:24.965Z,2.59
2022-11-08T05:34:27.250Z,2.34
2022-11-08T05:44:29.645Z,2.18
2022-11-08T05:54:32.662Z,2.10
2022-11-08T06:04:34.988Z,2.02
2022-11-08T06:14:37.299Z,1.79
2022-11-08T06:24:39.841Z,1.77
2022-11-08T06:34:42.280Z,1.81
2022-11-08T06:44:44.891Z,2.20
2022-11-08T06:54:47.608Z,2.70
2022-11-08T07:04:50.169Z,3.51
2022-11-08T07:14:52.708Z,4.60
2022-11-08T07:24:55.111Z,4.92
2022-11-08T07:34:57.499Z,5.23
2022-11-08T07:45:00.194Z,5.70
2022-11-08T07:55:02.775Z,6.14
2022-11-08T08:05:05.788Z,6.61
2022-11-08T08:15:08.799Z,7.16
2022-11-08T08:25:11.666Z,7.48
2022-11-08T08:35:14.429Z,7.79
2022-11-08T08:45:16.884Z,7.72
2022-11-08T08:55:19.422Z,7.58
2022-11-08T09:05:21.939Z,7.73
2022-11-08T09:15:24.500Z,7.85
2022-11-08T09:25:27.112Z,8.21
2022-11-08T09:35:30.573Z,8.72
2022-11-08T09:45:46.688Z,9.28
2022-11-08T09:55:59.547Z,9.69
2022-11-08T10:06:31.055Z,10.13
2022-11-08T10:16:51.947Z,10.52
2022-11-08T10:26:58.157Z,11.05
2022-11-08T10:37:06.603Z,11.57
2022-11-08T10:47:35.402Z,12.07
2022-11-08T10:57:45.397Z,12.52
2022-11-08T11:07:57.568Z,12.84
2022-11-08T11:18:17.427Z,13.31
2022-11-08T11:28:20.309Z,13.66
2022-11-08T11:38:44.221Z,13.78
2022-11-08T11:48:52.158Z,13.70
2022-11-08T11:59:32.211Z,13.98
2022-11-08T12:09:56.344Z,14.23
2022-11-08T12:20:22.767Z,14.86
2022-11-08T12:30:40.382Z,14.75
2022-11-08T12:41:01.023Z,14.71
2022-11-08T12:51:36.819Z,14.68
2022-11-08T13:01:39.380Z,14.23
2022-11-08T13:12:09.317Z,13.75
2022-11-08T13:22:32.276Z,13.18
2022-11-08T13:32:54.047Z,12.49
2022-11-08T13:42:58.556Z,11.88
2022-11-08T13:53:18.945Z,11.39
2022-11-08T14:03:47.406Z,10.89
2022-11-08T14:14:12.564Z,10.38
2022-11-08T14:24:22.589Z,9.92
2022-11-08T14:34:31.598Z,9.47
2022-11-08T14:44:35.137Z,9.24
2022-11-08T14:54:40.530Z,8.80
2022-11-08T15:04:42.760Z,8.35
2022-11-08T15:14:57.668Z,8.02
2022-11-08T15:25:15.652Z,7.59
2022-11-08T15:35:38.503Z,7.19
2022-11-08T15:45:52.887Z,6.66
2022-11-08T15:56:02.746Z,6.20
2022-11-08T16:06:05.065Z,5.91
2022-11-08T16:16:12.185Z,5.67
2022-11-08T16:26:17.267Z,5.37
2022-11-08T16:36:24.635Z,5.10
2022-11-08T16:46:27.063Z,5.15
2022-11-08T16:56:29.493Z,5.62
2022-11-08T17:06:31.860Z,5.86
2022-11-08T17:16:34.135Z,6.07
2022-11-08T17:26:36.422Z,5.67
2022-11-08T17:36:38.615Z,5.34
2022-11-08T17:46:40.859Z,5.27
2022-11-08T17:56:43.063Z,4.99
2022-11-08T18:06:45.385Z,4.81
2022-11-08T18:16:49.236Z,4.78
2022-11-08T18:26:51.620Z,4.82
2022-11-08T18:36:54.060Z,4.89
2022-11-08T18:46:56.230Z,4.96
2022-11-08T18:56:58.584Z,5.01
2022-11-08T19:07:00.845Z,4.99
2022-11-08T19:17:03.096Z,4.91
2022-11-08T19:27:06.197Z,4.86
2022-11-08T19:37:08.441Z,4.75
2022-11-08T19:47:10.623Z,4.78
2022-11-08T19:57:12.855Z,4.72
2022-11-08T20:07:15.170Z,4.68
2022-11-08T20:17:17.826Z,4.41
2022-11-08T20:27:20.065Z,4.46
2022-11-08T20:37:22.233Z,4.24
2022-11-08T20:47:24.449Z,4.15
2022-11-08T20:57:26.595Z,3.99
2022-11-08T21:17:50.959Z,3.48
2022-11-08T21:27:53.195Z,3.45
2022-11-08T21:40:13.952Z,3.36
2022-11-08T21:50:16.426Z,3.62
2022-11-08T22:00:18.815Z,4.14
2022-11-08T22:10:21.036Z,4.22
2022-11-08T22:20:23.277Z,4.09
2022-11-08T22:30:25.424Z,4.04
2022-11-08T22:40:27.598Z,3.80
2022-11-08T22:50:29.742Z,3.64
2022-11-08T23:00:31.915Z,3.69
2022-11-08T23:10:54.506Z,3.60
2022-11-08T23:21:15.162Z,3.73
2022-11-08T23:31:35.497Z,3.93
2022-11-08T23:41:56.127Z,3.88
2022-11-08T23:51:58.365Z,4.16
